METAR Data
IDs: Format: Raw Decoded Include TAF

Data at: 1340 UTC 17 Aug 2019

METAR for:KOUN (Norman/Univ Oklahoma, OK, US)
Text:KOUN 171245Z 16012KT 10SM CLR 26/22 A2986
Temperature: 26.0°C ( 79°F)
Dewpoint: 22.0°C ( 72°F) [RH = 79%]
Pressure (altimeter):29.86 inches Hg (1011.3 mb)
Winds:from the SSE (160 degrees) at 14 MPH (12 knots; 6.2 m/s)
Visibility:10 or more sm (16+ km)
Ceiling:at least 12,000 feet AGL
Clouds:sky clear below 12,000 feet AGL
Text:KOUN 171235Z AUTO 17011KT 10SM CLR 26/22 A2986 RMK AO2 T02610218
Temperature: 26.1°C ( 79°F)
Dewpoint: 21.8°C ( 71°F) [RH = 77%]
Pressure (altimeter):29.86 inches Hg (1011.3 mb)
Winds:from the S (170 degrees) at 13 MPH (11 knots; 5.7 m/s)
Visibility:10 or more sm (16+ km)
Ceiling:at least 12,000 feet AGL
Clouds:sky clear below 12,000 feet AGL
QC Flag:automated observation with no human augmentation
Text:KOUN 171215Z AUTO 17008KT 10SM CLR 26/22 A2986 RMK AO2 T02580217
Temperature: 25.8°C ( 78°F)
Dewpoint: 21.7°C ( 71°F) [RH = 78%]
Pressure (altimeter):29.86 inches Hg (1011.3 mb)
Winds:from the S (170 degrees) at 9 MPH (8 knots; 4.1 m/s)
Visibility:10 or more sm (16+ km)
Ceiling:at least 12,000 feet AGL
Clouds:sky clear below 12,000 feet AGL
QC Flag:automated observation with no human augmentation
Text:KOUN 171155Z AUTO 17010KT 10SM CLR 26/21 A2985 RMK AO2 T02560215 10285 20256
Temperature: 25.6°C ( 78°F)
Dewpoint: 21.5°C ( 71°F) [RH = 78%]
Pressure (altimeter):29.85 inches Hg (1010.9 mb)
Winds:from the S (170 degrees) at 12 MPH (10 knots; 5.1 m/s)
Visibility:10 or more sm (16+ km)
Ceiling:at least 12,000 feet AGL
Clouds:sky clear below 12,000 feet AGL
QC Flag:automated observation with no human augmentation
Text:KOUN 171135Z AUTO 17011KT 10SM CLR 26/21 A2985 RMK AO2 T02570213
Temperature: 25.7°C ( 78°F)
Dewpoint: 21.3°C ( 70°F) [RH = 77%]
Pressure (altimeter):29.85 inches Hg (1010.9 mb)
Winds:from the S (170 degrees) at 13 MPH (11 knots; 5.7 m/s)
Visibility:10 or more sm (16+ km)
Ceiling:at least 12,000 feet AGL
Clouds:sky clear below 12,000 feet AGL
QC Flag:automated observation with no human augmentation
Text:KOUN 171115Z AUTO 17012KT 10SM CLR 26/21 A2985 RMK AO2 LTG DSNT NW T02590212
Temperature: 25.9°C ( 79°F)
Dewpoint: 21.2°C ( 70°F) [RH = 75%]
Pressure (altimeter):29.85 inches Hg (1010.9 mb)
Winds:from the S (170 degrees) at 14 MPH (12 knots; 6.2 m/s)
Visibility:10 or more sm (16+ km)
Ceiling:at least 12,000 feet AGL
Clouds:sky clear below 12,000 feet AGL
QC Flag:automated observation with no human augmentation
Text:KOUN 171055Z AUTO 17012KT 10SM CLR 26/21 A2984 RMK AO2 T02610211
Temperature: 26.1°C ( 79°F)
Dewpoint: 21.1°C ( 70°F) [RH = 74%]
Pressure (altimeter):29.84 inches Hg (1010.6 mb)
Winds:from the S (170 degrees) at 14 MPH (12 knots; 6.2 m/s)
Visibility:10 or more sm (16+ km)
Ceiling:at least 12,000 feet AGL
Clouds:sky clear below 12,000 feet AGL
QC Flag:automated observation with no human augmentation
Text:KOUN 171035Z AUTO 17014KT 10SM CLR 26/21 A2983 RMK AO2 T02610210
Temperature: 26.1°C ( 79°F)
Dewpoint: 21.0°C ( 70°F) [RH = 74%]
Pressure (altimeter):29.83 inches Hg (1010.2 mb)
Winds:from the S (170 degrees) at 16 MPH (14 knots; 7.2 m/s)
Visibility:10 or more sm (16+ km)
Ceiling:at least 12,000 feet AGL
Clouds:sky clear below 12,000 feet AGL
QC Flag:automated observation with no human augmentation
Text:KOUN 171015Z AUTO 17011KT 10SM CLR 26/21 A2984 RMK AO2 T02630209
Temperature: 26.3°C ( 79°F)
Dewpoint: 20.9°C ( 70°F) [RH = 72%]
Pressure (altimeter):29.84 inches Hg (1010.6 mb)
Winds:from the S (170 degrees) at 13 MPH (11 knots; 5.7 m/s)
Visibility:10 or more sm (16+ km)
Ceiling:at least 12,000 feet AGL
Clouds:sky clear below 12,000 feet AGL
QC Flag:automated observation with no human augmentation
Text:KOUN 170955Z AUTO 17009KT 10SM CLR 26/21 A2984 RMK AO2 T02620207
Temperature: 26.2°C ( 79°F)
Dewpoint: 20.7°C ( 69°F) [RH = 72%]
Pressure (altimeter):29.84 inches Hg (1010.6 mb)
Winds:from the S (170 degrees) at 10 MPH (9 knots; 4.6 m/s)
Visibility:10 or more sm (16+ km)
Ceiling:at least 12,000 feet AGL
Clouds:sky clear below 12,000 feet AGL
QC Flag:automated observation with no human augmentation
Text:KOUN 170935Z AUTO 22007KT 10SM CLR 27/21 A2985 RMK AO2 T02710207
Temperature: 27.1°C ( 81°F)
Dewpoint: 20.7°C ( 69°F) [RH = 68%]
Pressure (altimeter):29.85 inches Hg (1010.9 mb)
Winds:from the SW (220 degrees) at 8 MPH (7 knots; 3.6 m/s)
Visibility:10 or more sm (16+ km)
Ceiling:at least 12,000 feet AGL
Clouds:sky clear below 12,000 feet AGL
QC Flag:automated observation with no human augmentation
Text:KOUN 170915Z AUTO 18011KT 10SM SCT120 27/20 A2984 RMK AO2 T02680204
Temperature: 26.8°C ( 80°F)
Dewpoint: 20.4°C ( 69°F) [RH = 68%]
Pressure (altimeter):29.84 inches Hg (1010.6 mb)
Winds:from the S (180 degrees) at 13 MPH (11 knots; 5.7 m/s)
Visibility:10 or more sm (16+ km)
Ceiling:at least 12,000 feet AGL
Clouds: scattered clouds at 12000 feet AGL
QC Flag:automated observation with no human augmentation
Text:KOUN 170855Z AUTO 30008KT 10SM SCT120 27/20 A2986 RMK AO2 T02680203
Temperature: 26.8°C ( 80°F)
Dewpoint: 20.3°C ( 69°F) [RH = 68%]
Pressure (altimeter):29.86 inches Hg (1011.3 mb)
Winds:from the WNW (300 degrees) at 9 MPH (8 knots; 4.1 m/s)
Visibility:10 or more sm (16+ km)
Ceiling:at least 12,000 feet AGL
Clouds: scattered clouds at 12000 feet AGL
QC Flag:automated observation with no human augmentation
Text:KOUN 170835Z AUTO 17008KT 10SM CLR 27/20 A2985 RMK AO2 T02660202
Temperature: 26.6°C ( 80°F)
Dewpoint: 20.2°C ( 68°F) [RH = 68%]
Pressure (altimeter):29.85 inches Hg (1010.9 mb)
Winds:from the S (170 degrees) at 9 MPH (8 knots; 4.1 m/s)
Visibility:10 or more sm (16+ km)
Ceiling:at least 12,000 feet AGL
Clouds:sky clear below 12,000 feet AGL
QC Flag:automated observation with no human augmentation
Text:KOUN 170815Z AUTO 17009KT 10SM CLR 27/20 A2985 RMK AO2 T02720201
Temperature: 27.2°C ( 81°F)
Dewpoint: 20.1°C ( 68°F) [RH = 65%]
Pressure (altimeter):29.85 inches Hg (1010.9 mb)
Winds:from the S (170 degrees) at 10 MPH (9 knots; 4.6 m/s)
Visibility:10 or more sm (16+ km)
Ceiling:at least 12,000 feet AGL
Clouds:sky clear below 12,000 feet AGL
QC Flag:automated observation with no human augmentation
Text:KOUN 170755Z AUTO 19011KT 10SM CLR 28/20 A2986 RMK AO2 T02760201
Temperature: 27.6°C ( 82°F)
Dewpoint: 20.1°C ( 68°F) [RH = 64%]
Pressure (altimeter):29.86 inches Hg (1011.3 mb)
Winds:from the S (190 degrees) at 13 MPH (11 knots; 5.7 m/s)
Visibility:10 or more sm (16+ km)
Ceiling:at least 12,000 feet AGL
Clouds:sky clear below 12,000 feet AGL
QC Flag:automated observation with no human augmentation
Text:KOUN 170735Z AUTO 17011KT 10SM CLR 28/20 A2985 RMK AO2 T02770200
Temperature: 27.7°C ( 82°F)
Dewpoint: 20.0°C ( 68°F) [RH = 63%]
Pressure (altimeter):29.85 inches Hg (1010.9 mb)
Winds:from the S (170 degrees) at 13 MPH (11 knots; 5.7 m/s)
Visibility:10 or more sm (16+ km)
Ceiling:at least 12,000 feet AGL
Clouds:sky clear below 12,000 feet AGL
QC Flag:automated observation with no human augmentation
Text:KOUN 170715Z AUTO 17013KT 10SM CLR 28/20 A2985 RMK AO2 LTG DSNT N T02780199
Temperature: 27.8°C ( 82°F)
Dewpoint: 19.9°C ( 68°F) [RH = 62%]
Pressure (altimeter):29.85 inches Hg (1010.9 mb)
Winds:from the S (170 degrees) at 15 MPH (13 knots; 6.7 m/s)
Visibility:10 or more sm (16+ km)
Ceiling:at least 12,000 feet AGL
Clouds:sky clear below 12,000 feet AGL
QC Flag:automated observation with no human augmentation
Text:KOUN 170655Z AUTO 17012G18KT 10SM CLR 28/20 A2985 RMK AO2 LTG DSNT NW T02800197
Temperature: 28.0°C ( 82°F)
Dewpoint: 19.7°C ( 67°F) [RH = 61%]
Pressure (altimeter):29.85 inches Hg (1010.9 mb)
Winds:from the S (170 degrees) at 14 MPH (12 knots; 6.2 m/s) gusting to 21 MPH (18 knots; 9.3 m/s)
Visibility:10 or more sm (16+ km)
Ceiling:at least 12,000 feet AGL
Clouds:sky clear below 12,000 feet AGL
QC Flag:automated observation with no human augmentation
Text:KOUN 170635Z AUTO 16014G21KT 10SM CLR 28/20 A2985 RMK AO2 T02830196
Temperature: 28.3°C ( 83°F)
Dewpoint: 19.6°C ( 67°F) [RH = 59%]
Pressure (altimeter):29.85 inches Hg (1010.9 mb)
Winds:from the SSE (160 degrees) at 16 MPH (14 knots; 7.2 m/s) gusting to 24 MPH (21 knots; 10.8 m/s)
Visibility:10 or more sm (16+ km)
Ceiling:at least 12,000 feet AGL
Clouds:sky clear below 12,000 feet AGL
QC Flag:automated observation with no human augmentation
Text:KOUN 170615Z AUTO 16015KT 10SM CLR 28/19 A2986 RMK AO2 T02830194
Temperature: 28.3°C ( 83°F)
Dewpoint: 19.4°C ( 67°F) [RH = 59%]
Pressure (altimeter):29.86 inches Hg (1011.3 mb)
Winds:from the SSE (160 degrees) at 17 MPH (15 knots; 7.7 m/s)
Visibility:10 or more sm (16+ km)
Ceiling:at least 12,000 feet AGL
Clouds:sky clear below 12,000 feet AGL
QC Flag:automated observation with no human augmentation
Text:KOUN 170555Z AUTO 16013KT 10SM CLR 28/19 A2986 RMK AO2 T02850194 10355 20283
Temperature: 28.5°C ( 83°F)
Dewpoint: 19.4°C ( 67°F) [RH = 58%]
Pressure (altimeter):29.86 inches Hg (1011.3 mb)
Winds:from the SSE (160 degrees) at 15 MPH (13 knots; 6.7 m/s)
Visibility:10 or more sm (16+ km)
Ceiling:at least 12,000 feet AGL
Clouds:sky clear below 12,000 feet AGL
QC Flag:automated observation with no human augmentation
Text:KOUN 170535Z AUTO 16014G20KT 10SM CLR 28/19 A2987 RMK AO2 T02840195
Temperature: 28.4°C ( 83°F)
Dewpoint: 19.5°C ( 67°F) [RH = 59%]
Pressure (altimeter):29.87 inches Hg (1011.6 mb)
Winds:from the SSE (160 degrees) at 16 MPH (14 knots; 7.2 m/s) gusting to 23 MPH (20 knots; 10.3 m/s)
Visibility:10 or more sm (16+ km)
Ceiling:at least 12,000 feet AGL
Clouds:sky clear below 12,000 feet AGL
QC Flag:automated observation with no human augmentation
Text:KOUN 170515Z AUTO 16014KT 10SM CLR 28/20 A2987 RMK AO2 T02850196
Temperature: 28.5°C ( 83°F)
Dewpoint: 19.6°C ( 67°F) [RH = 59%]
Pressure (altimeter):29.87 inches Hg (1011.6 mb)
Winds:from the SSE (160 degrees) at 16 MPH (14 knots; 7.2 m/s)
Visibility:10 or more sm (16+ km)
Ceiling:at least 12,000 feet AGL
Clouds:sky clear below 12,000 feet AGL
QC Flag:automated observation with no human augmentation
Text:KOUN 170455Z AUTO 16014KT 10SM CLR 29/20 A2987 RMK AO2 T02870196
Temperature: 28.7°C ( 84°F)
Dewpoint: 19.6°C ( 67°F) [RH = 58%]
Pressure (altimeter):29.87 inches Hg (1011.6 mb)
Winds:from the SSE (160 degrees) at 16 MPH (14 knots; 7.2 m/s)
Visibility:10 or more sm (16+ km)
Ceiling:at least 12,000 feet AGL
Clouds:sky clear below 12,000 feet AGL
QC Flag:automated observation with no human augmentation
Text:KOUN 170435Z AUTO 15014G19KT 10SM CLR 29/20 A2987 RMK AO2 T02910196
Temperature: 29.1°C ( 84°F)
Dewpoint: 19.6°C ( 67°F) [RH = 57%]
Pressure (altimeter):29.87 inches Hg (1011.6 mb)
Winds:from the SSE (150 degrees) at 16 MPH (14 knots; 7.2 m/s) gusting to 22 MPH (19 knots; 9.8 m/s)
Visibility:10 or more sm (16+ km)
Ceiling:at least 12,000 feet AGL
Clouds:sky clear below 12,000 feet AGL
QC Flag:automated observation with no human augmentation
Text:KOUN 170415Z AUTO 15015KT 10SM CLR 29/20 A2986 RMK AO2 T02940198
Temperature: 29.4°C ( 85°F)
Dewpoint: 19.8°C ( 68°F) [RH = 56%]
Pressure (altimeter):29.86 inches Hg (1011.3 mb)
Winds:from the SSE (150 degrees) at 17 MPH (15 knots; 7.7 m/s)
Visibility:10 or more sm (16+ km)
Ceiling:at least 12,000 feet AGL
Clouds:sky clear below 12,000 feet AGL
QC Flag:automated observation with no human augmentation
Text:KOUN 170355Z AUTO 14014G21KT 10SM CLR 30/20 A2985 RMK AO2 T02990197
Temperature: 29.9°C ( 86°F)
Dewpoint: 19.7°C ( 67°F) [RH = 54%]
Pressure (altimeter):29.85 inches Hg (1010.9 mb)
Winds:from the SE (140 degrees) at 16 MPH (14 knots; 7.2 m/s) gusting to 24 MPH (21 knots; 10.8 m/s)
Visibility:10 or more sm (16+ km)
Ceiling:at least 12,000 feet AGL
Clouds:sky clear below 12,000 feet AGL
QC Flag:automated observation with no human augmentation
Text:KOUN 170335Z AUTO 15015KT 10SM CLR 30/20 A2985 RMK AO2 T03030196
Temperature: 30.3°C ( 87°F)
Dewpoint: 19.6°C ( 67°F) [RH = 53%]
Pressure (altimeter):29.85 inches Hg (1010.9 mb)
Winds:from the SSE (150 degrees) at 17 MPH (15 knots; 7.7 m/s)
Visibility:10 or more sm (16+ km)
Ceiling:at least 12,000 feet AGL
Clouds:sky clear below 12,000 feet AGL
QC Flag:automated observation with no human augmentation
Text:KOUN 170315Z AUTO 15013KT 10SM CLR 31/20 A2984 RMK AO2 T03060196
Temperature: 30.6°C ( 87°F)
Dewpoint: 19.6°C ( 67°F) [RH = 52%]
Pressure (altimeter):29.84 inches Hg (1010.6 mb)
Winds:from the SSE (150 degrees) at 15 MPH (13 knots; 6.7 m/s)
Visibility:10 or more sm (16+ km)
Ceiling:at least 12,000 feet AGL
Clouds:sky clear below 12,000 feet AGL
QC Flag:automated observation with no human augmentation
Text:KOUN 170255Z AUTO 14012KT 10SM CLR 31/20 A2983 RMK AO2 T03100200
Temperature: 31.0°C ( 88°F)
Dewpoint: 20.0°C ( 68°F) [RH = 52%]
Pressure (altimeter):29.83 inches Hg (1010.2 mb)
Winds:from the SE (140 degrees) at 14 MPH (12 knots; 6.2 m/s)
Visibility:10 or more sm (16+ km)
Ceiling:at least 12,000 feet AGL
Clouds:sky clear below 12,000 feet AGL
QC Flag:automated observation with no human augmentation
Text:KOUN 170145Z 15009KT 10SM CLR 32/18 A2982
Temperature: 32.0°C ( 90°F)
Dewpoint: 18.0°C ( 64°F) [RH = 43%]
Pressure (altimeter):29.82 inches Hg (1009.9 mb)
Winds:from the SSE (150 degrees) at 10 MPH (9 knots; 4.6 m/s)
Visibility:10 or more sm (16+ km)
Ceiling:at least 12,000 feet AGL
Clouds:sky clear below 12,000 feet AGL